createdAt,value
2018-12-27T00:01:51.903Z,85.16
2018-12-27T00:04:16.331Z,85.04
2018-12-27T00:06:40.744Z,85.35
2018-12-27T00:12:02.304Z,84.30
2018-12-27T00:14:26.728Z,84.89
2018-12-27T00:16:51.137Z,83.88
2018-12-27T00:19:15.560Z,84.22
2018-12-27T00:21:40.037Z,84.57
2018-12-27T00:24:04.459Z,84.82
2018-12-27T00:26:28.877Z,85.31
2018-12-27T00:28:53.284Z,85.63
2018-12-27T00:31:17.922Z,85.13
2018-12-27T00:33:42.452Z,85.90
2018-12-27T00:36:06.978Z,85.62
2018-12-27T00:38:31.530Z,85.34
2018-12-27T00:40:56.060Z,84.86
2018-12-27T00:43:20.604Z,84.91
2018-12-27T00:45:45.148Z,85.37
2018-12-27T00:48:09.683Z,85.73
2018-12-27T00:50:34.211Z,85.45
2018-12-27T00:52:58.813Z,85.83
2018-12-27T00:55:23.349Z,86.33
2018-12-27T00:57:47.878Z,86.65
2018-12-27T01:00:12.399Z,86.40
2018-12-27T01:02:36.928Z,85.60
2018-12-27T01:05:01.546Z,85.53
2018-12-27T01:07:26.068Z,85.93
2018-12-27T01:09:50.626Z,85.90
2018-12-27T01:12:15.162Z,85.95
2018-12-27T01:14:39.703Z,86.34
2018-12-27T01:17:04.233Z,85.53
2018-12-27T01:19:28.771Z,86.24
2018-12-27T01:21:53.302Z,86.70
2018-12-27T01:24:17.850Z,86.94
2018-12-27T01:26:42.391Z,86.59
2018-12-27T01:29:06.909Z,86.75
2018-12-27T01:31:31.430Z,86.22
2018-12-27T01:33:55.955Z,86.37
2018-12-27T01:36:20.505Z,86.15
2018-12-27T01:38:45.013Z,85.94
2018-12-27T01:41:09.529Z,85.56
2018-12-27T01:43:34.061Z,85.93
2018-12-27T01:45:58.668Z,85.51
2018-12-27T01:48:23.202Z,85.62
2018-12-27T01:50:47.734Z,85.94
2018-12-27T01:53:12.285Z,85.67
2018-12-27T01:55:36.801Z,85.75
2018-12-27T01:58:01.326Z,86.57
2018-12-27T02:00:25.837Z,86.57
2018-12-27T02:02:50.379Z,86.15
2018-12-27T02:05:14.896Z,86.17
2018-12-27T02:07:39.410Z,85.78
2018-12-27T02:10:03.951Z,85.45
2018-12-27T02:12:28.479Z,84.46
2018-12-27T02:14:53.016Z,84.44
2018-12-27T02:17:17.530Z,84.13
2018-12-27T02:19:42.061Z,84.10
2018-12-27T02:22:06.564Z,83.83
2018-12-27T02:24:31.102Z,83.82
2018-12-27T02:26:55.625Z,83.57
2018-12-27T02:29:20.169Z,84.19
2018-12-27T02:31:44.691Z,83.83
2018-12-27T02:34:09.218Z,83.78
2018-12-27T02:36:33.735Z,84.06
2018-12-27T02:38:58.267Z,84.04
2018-12-27T02:41:22.792Z,83.88
2018-12-27T02:43:47.298Z,83.38
2018-12-27T02:46:11.839Z,82.99
2018-12-27T02:48:36.365Z,83.06
2018-12-27T02:51:00.897Z,83.30
2018-12-27T02:53:25.426Z,82.74
2018-12-27T02:55:49.971Z,82.69
2018-12-27T02:58:14.503Z,82.69
2018-12-27T03:00:39.014Z,82.92
2018-12-27T03:03:03.541Z,82.88
2018-12-27T03:05:28.055Z,83.12
2018-12-27T03:07:52.579Z,82.96
2018-12-27T03:10:17.104Z,81.93
2018-12-27T03:12:41.647Z,82.74
2018-12-27T03:15:06.177Z,82.43
2018-12-27T03:17:30.789Z,82.13
2018-12-27T03:19:55.303Z,81.99
2018-12-27T03:22:19.820Z,82.24
2018-12-27T03:24:44.364Z,82.95
2018-12-27T03:27:08.889Z,83.00
2018-12-27T03:29:33.471Z,82.72
2018-12-27T03:31:57.978Z,82.97
2018-12-27T03:34:22.498Z,82.38
2018-12-27T03:36:47.008Z,81.96
2018-12-27T03:39:11.538Z,82.00
2018-12-27T03:41:36.059Z,82.56
2018-12-27T03:44:00.615Z,82.32
2018-12-27T03:46:25.133Z,82.42
2018-12-27T03:48:49.638Z,82.22
2018-12-27T03:51:14.185Z,82.44
2018-12-27T03:53:38.697Z,82.66
2018-12-27T03:56:03.236Z,82.32
2018-12-27T03:58:27.755Z,80.65
2018-12-27T04:00:52.291Z,80.18
2018-12-27T04:03:16.807Z,80.81
2018-12-27T04:05:41.327Z,80.41
2018-12-27T04:08:05.845Z,80.22
2018-12-27T04:10:30.363Z,79.63
2018-12-27T04:12:54.885Z,81.07
2018-12-27T04:15:19.262Z,79.92
2018-12-27T04:17:43.685Z,80.50
2018-12-27T04:20:08.076Z,80.40
2018-12-27T04:22:32.566Z,80.06
2018-12-27T04:24:57.015Z,79.43
2018-12-27T04:27:21.430Z,79.45
2018-12-27T04:29:45.842Z,79.29
2018-12-27T04:32:10.577Z,79.87
2018-12-27T04:34:35.206Z,81.54
2018-12-27T04:39:56.868Z,81.51
2018-12-27T04:42:32.716Z,81.69
2018-12-27T04:44:57.116Z,81.79
2018-12-27T04:47:21.511Z,81.71
2018-12-27T04:49:46.191Z,81.77
2018-12-27T04:52:10.573Z,82.44
2018-12-27T04:54:34.972Z,81.78
2018-12-27T04:56:59.370Z,81.92
2018-12-27T04:59:23.774Z,81.29
2018-12-27T05:01:48.171Z,81.86
2018-12-27T05:04:18.055Z,81.60
2018-12-27T05:06:44.373Z,81.63
2018-12-27T05:09:08.686Z,81.06
2018-12-27T05:11:33.077Z,81.59
2018-12-27T05:13:58.287Z,82.36
2018-12-27T05:16:29.230Z,81.93
2018-12-27T05:18:53.603Z,81.87
2018-12-27T05:21:18.042Z,81.69
2018-12-27T05:23:42.445Z,81.34
2018-12-27T05:26:06.843Z,81.40
2018-12-27T05:28:31.232Z,80.65
2018-12-27T05:30:55.614Z,81.60
2018-12-27T05:33:20.035Z,81.76
2018-12-27T05:35:44.422Z,81.69
2018-12-27T05:38:08.828Z,81.60
2018-12-27T05:40:33.225Z,81.48
2018-12-27T05:42:57.610Z,80.71
2018-12-27T05:45:22.033Z,80.79
2018-12-27T05:47:46.434Z,80.31
2018-12-27T05:50:10.837Z,81.09
2018-12-27T05:52:35.218Z,80.82
2018-12-27T05:54:59.592Z,80.47
2018-12-27T05:57:24.009Z,81.29
2018-12-27T05:59:48.397Z,80.81
2018-12-27T06:02:31.942Z,80.50
2018-12-27T06:04:56.316Z,80.28
2018-12-27T06:07:20.719Z,80.50
2018-12-27T06:09:45.137Z,80.07
2018-12-27T06:12:09.531Z,80.51
2018-12-27T06:14:33.944Z,80.73
2018-12-27T06:16:58.328Z,80.75
2018-12-27T06:19:22.747Z,81.23
2018-12-27T06:21:47.156Z,81.02
2018-12-27T06:24:11.558Z,81.46
2018-12-27T06:26:35.967Z,81.17
2018-12-27T06:29:00.359Z,80.97
2018-12-27T06:31:24.801Z,81.18
2018-12-27T06:33:49.202Z,81.46
2018-12-27T06:36:13.595Z,81.77
2018-12-27T06:38:38.006Z,81.72
2018-12-27T06:41:02.398Z,81.15
2018-12-27T06:43:26.834Z,81.41
2018-12-27T06:45:51.224Z,81.19
2018-12-27T06:48:15.904Z,81.66
2018-12-27T06:50:40.314Z,81.51
2018-12-27T06:53:04.710Z,81.61
2018-12-27T06:55:29.132Z,81.20
2018-12-27T06:57:53.515Z,80.77
2018-12-27T07:00:17.919Z,81.77
2018-12-27T07:02:42.337Z,81.48
2018-12-27T07:05:06.730Z,81.31
2018-12-27T07:07:31.151Z,81.57
2018-12-27T07:09:55.552Z,81.38
2018-12-27T07:12:19.963Z,81.10
2018-12-27T07:14:44.384Z,81.12
2018-12-27T07:17:08.770Z,81.49
2018-12-27T07:19:33.162Z,81.78
2018-12-27T07:21:57.585Z,82.16
2018-12-27T07:24:21.968Z,82.53
2018-12-27T07:26:46.356Z,82.58
2018-12-27T07:29:10.795Z,81.91
2018-12-27T07:31:35.193Z,82.12
2018-12-27T07:33:59.578Z,81.98
2018-12-27T07:36:23.978Z,82.79
2018-12-27T07:38:48.375Z,82.62
2018-12-27T07:41:12.810Z,82.62
2018-12-27T07:43:37.196Z,83.08
2018-12-27T07:46:01.575Z,82.42
2018-12-27T07:48:25.978Z,82.48
2018-12-27T07:50:50.387Z,83.28
2018-12-27T07:53:14.822Z,83.05
2018-12-27T07:55:39.216Z,83.24
2018-12-27T07:58:03.615Z,83.17
2018-12-27T08:00:28.043Z,82.84
2018-12-27T08:02:52.439Z,83.84
2018-12-27T08:10:32.202Z,83.14
2018-12-27T08:12:56.609Z,82.57
2018-12-27T08:15:20.995Z,82.39
2018-12-27T08:17:45.408Z,82.80
2018-12-27T08:20:09.795Z,82.79
2018-12-27T08:22:34.236Z,82.38
2018-12-27T08:24:58.627Z,82.13
2018-12-27T08:27:23.023Z,82.71
2018-12-27T08:29:47.433Z,83.02
2018-12-27T08:32:11.846Z,83.58
2018-12-27T08:34:37.145Z,83.47
2018-12-27T08:37:11.337Z,83.24
2018-12-27T08:39:35.732Z,82.92
2018-12-27T08:42:00.156Z,84.28
2018-12-27T08:44:24.536Z,84.01
2018-12-27T08:46:48.990Z,84.09
2018-12-27T08:49:13.378Z,83.22
2018-12-27T08:51:37.778Z,83.44
2018-12-27T08:54:02.200Z,82.84
2018-12-27T08:56:26.603Z,82.71
2018-12-27T08:58:51.031Z,83.27
2018-12-27T09:01:15.424Z,83.48
2018-12-27T09:03:39.819Z,82.91
2018-12-27T09:06:04.219Z,82.89
2018-12-27T09:08:28.598Z,82.64
2018-12-27T09:10:53.032Z,82.65
2018-12-27T09:13:17.444Z,82.34
2018-12-27T09:15:41.862Z,82.47
2018-12-27T09:18:06.281Z,82.75
2018-12-27T09:20:30.681Z,83.12
2018-12-27T09:23:06.868Z,82.52
2018-12-27T09:25:31.266Z,83.04
2018-12-27T09:27:55.686Z,82.59
2018-12-27T09:30:20.086Z,82.96
2018-12-27T09:32:44.487Z,82.97
2018-12-27T09:35:08.906Z,82.93
2018-12-27T09:37:33.332Z,82.17
2018-12-27T09:39:57.796Z,82.82
2018-12-27T09:44:57.957Z,82.88
2018-12-27T09:47:22.371Z,82.64
2018-12-27T09:49:46.771Z,82.42
2018-12-27T09:52:16.907Z,83.13
2018-12-27T09:54:41.291Z,82.37
2018-12-27T09:57:05.695Z,81.75
2018-12-27T09:59:30.254Z,82.45
2018-12-27T10:01:54.733Z,82.37
2018-12-27T10:04:19.181Z,82.52
2018-12-27T10:06:43.593Z,83.08
2018-12-27T10:09:08.069Z,82.48
2018-12-27T10:11:32.872Z,82.79
2018-12-27T10:13:58.148Z,82.85
2018-12-27T10:16:22.625Z,82.77
2018-12-27T10:18:47.011Z,82.55
2018-12-27T10:21:11.451Z,82.54
2018-12-27T10:23:35.841Z,82.15
2018-12-27T10:26:00.230Z,81.60
2018-12-27T10:28:24.698Z,81.26
2018-12-27T10:30:49.104Z,81.94
2018-12-27T10:33:13.536Z,82.64
2018-12-27T10:38:14.520Z,82.08
2018-12-27T10:40:38.916Z,82.43
2018-12-27T10:43:03.320Z,82.70
2018-12-27T10:45:27.732Z,82.71
2018-12-27T10:47:52.143Z,82.78
2018-12-27T10:50:16.573Z,81.92
2018-12-27T10:52:53.836Z,82.65
2018-12-27T10:55:18.268Z,82.53
2018-12-27T10:57:42.674Z,82.78
2018-12-27T11:03:03.625Z,82.13
2018-12-27T11:08:04.686Z,81.62
2018-12-27T11:10:29.086Z,81.47
2018-12-27T11:12:53.523Z,81.56
2018-12-27T11:15:17.931Z,81.73
2018-12-27T11:17:42.324Z,82.04
2018-12-27T11:20:27.557Z,81.94
2018-12-27T11:22:51.965Z,82.09
2018-12-27T11:25:16.369Z,82.79
2018-12-27T11:27:40.777Z,82.05
2018-12-27T11:33:02.498Z,81.22
2018-12-27T11:35:26.878Z,80.66
2018-12-27T11:37:51.309Z,80.69
2018-12-27T11:40:15.691Z,81.45
2018-12-27T11:42:40.088Z,81.25
2018-12-27T11:45:15.855Z,81.15
2018-12-27T11:47:40.248Z,80.63
2018-12-27T11:50:16.157Z,81.18
2018-12-27T11:52:40.547Z,81.46
2018-12-27T11:58:01.721Z,81.65
2018-12-27T12:00:26.110Z,81.27
2018-12-27T12:02:50.530Z,81.34
2018-12-27T12:05:14.934Z,81.38
2018-12-27T12:07:39.380Z,81.86
2018-12-27T12:10:15.162Z,81.59
2018-12-27T12:12:39.582Z,81.06
2018-12-27T12:18:00.500Z,82.20
2018-12-27T12:20:24.906Z,81.39
2018-12-27T12:22:49.293Z,81.52
2018-12-27T12:25:13.705Z,82.52
2018-12-27T12:27:38.108Z,82.61
2018-12-27T12:30:02.604Z,82.58
2018-12-27T12:32:27.018Z,83.55
2018-12-27T12:35:03.713Z,84.25
2018-12-27T12:37:28.272Z,83.74
2018-12-27T12:39:52.681Z,83.22
2018-12-27T12:42:17.457Z,83.60
2018-12-27T12:44:41.878Z,83.26
2018-12-27T12:47:06.322Z,83.17
2018-12-27T12:49:30.731Z,83.16
2018-12-27T12:51:55.150Z,83.36
2018-12-27T12:54:19.591Z,83.08
2018-12-27T12:56:43.991Z,82.50
2018-12-27T12:59:08.394Z,82.65
2018-12-27T13:01:32.843Z,82.62
2018-12-27T13:03:57.238Z,83.14
2018-12-27T13:06:21.647Z,82.65
2018-12-27T13:08:46.074Z,82.70
2018-12-27T13:11:10.470Z,82.23
2018-12-27T13:13:34.874Z,82.72
2018-12-27T13:15:59.282Z,82.10
2018-12-27T13:18:23.718Z,82.33
2018-12-27T13:20:48.157Z,82.49
2018-12-27T13:23:12.923Z,81.92
2018-12-27T13:25:47.672Z,82.05
2018-12-27T13:28:12.080Z,82.15
2018-12-27T13:30:36.473Z,82.07
2018-12-27T13:33:00.898Z,82.11
2018-12-27T13:35:25.299Z,82.98
2018-12-27T13:37:49.737Z,83.24
2018-12-27T13:40:14.135Z,82.34
2018-12-27T13:42:38.535Z,82.05
2018-12-27T13:45:02.975Z,81.88
2018-12-27T13:47:27.378Z,82.51
2018-12-27T13:49:51.811Z,81.85
2018-12-27T13:52:23.770Z,81.76
2018-12-27T13:54:48.142Z,81.70
2018-12-27T13:57:12.556Z,81.92
2018-12-27T13:59:36.960Z,81.90
2018-12-27T14:02:01.386Z,81.87
2018-12-27T14:04:25.778Z,82.06
2018-12-27T14:06:50.176Z,82.99
2018-12-27T14:09:14.577Z,82.59
2018-12-27T14:11:38.959Z,82.59
2018-12-27T14:14:03.392Z,82.60
2018-12-27T14:16:27.791Z,81.71
2018-12-27T14:18:52.225Z,82.17
2018-12-27T14:21:16.643Z,83.02
2018-12-27T14:23:53.461Z,82.67
2018-12-27T14:26:17.897Z,83.10
2018-12-27T14:28:42.285Z,82.64
2018-12-27T14:31:06.692Z,81.85
2018-12-27T14:33:31.118Z,82.96
2018-12-27T14:35:55.513Z,82.80
2018-12-27T14:38:19.932Z,83.12
2018-12-27T14:40:44.345Z,82.80
2018-12-27T14:43:08.755Z,82.22
2018-12-27T14:45:33.170Z,82.00
2018-12-27T14:47:57.575Z,83.31
2018-12-27T14:50:22.009Z,82.55
2018-12-27T14:52:46.407Z,82.24
2018-12-27T14:55:10.783Z,81.13
2018-12-27T14:57:35.215Z,82.07
2018-12-27T14:59:59.612Z,82.76
2018-12-27T15:02:29.678Z,82.65
2018-12-27T15:04:54.077Z,82.28
2018-12-27T15:07:18.466Z,82.57
2018-12-27T15:09:42.993Z,82.56
2018-12-27T15:12:07.423Z,82.05
2018-12-27T15:14:31.839Z,81.77
2018-12-27T15:16:56.239Z,82.52
2018-12-27T15:19:20.674Z,82.06
2018-12-27T15:21:45.076Z,81.87
2018-12-27T15:24:09.500Z,81.57
2018-12-27T15:26:34.180Z,82.27
2018-12-27T15:28:58.591Z,82.56
2018-12-27T15:31:23.006Z,82.30
2018-12-27T15:33:47.405Z,82.12
2018-12-27T15:36:11.813Z,82.22
2018-12-27T15:38:36.243Z,81.86
2018-12-27T15:41:00.646Z,82.54
2018-12-27T15:43:25.055Z,82.30
2018-12-27T15:45:49.550Z,82.62
2018-12-27T15:48:14.172Z,82.18
2018-12-27T15:50:38.560Z,82.06
2018-12-27T15:53:02.955Z,82.44
2018-12-27T15:55:27.382Z,82.31
2018-12-27T15:57:51.782Z,82.46
2018-12-27T16:00:16.183Z,82.64
2018-12-27T16:02:40.596Z,82.33
2018-12-27T16:05:05.228Z,82.38
2018-12-27T16:07:29.683Z,81.82
2018-12-27T16:09:54.085Z,82.64
2018-12-27T16:12:18.493Z,82.37
2018-12-27T16:14:44.528Z,82.41
2018-12-27T16:17:14.816Z,82.67
2018-12-27T16:19:39.271Z,82.37
2018-12-27T16:22:03.656Z,82.72
2018-12-27T16:24:28.064Z,82.75
2018-12-27T16:26:52.477Z,82.57
2018-12-27T16:29:16.865Z,82.79
2018-12-27T16:31:41.295Z,81.90
2018-12-27T16:34:05.772Z,82.25
2018-12-27T16:36:35.855Z,82.39
2018-12-27T16:39:00.455Z,82.85
2018-12-27T16:41:24.851Z,82.01
2018-12-27T16:43:49.262Z,82.09
2018-12-27T16:46:13.691Z,82.17
2018-12-27T16:48:38.150Z,82.62
2018-12-27T16:51:02.551Z,82.78
2018-12-27T16:53:26.970Z,82.73
2018-12-27T16:55:51.375Z,83.01
2018-12-27T16:58:15.830Z,83.02
2018-12-27T17:00:40.216Z,83.01
2018-12-27T17:03:04.692Z,83.07
2018-12-27T17:05:29.118Z,82.26
2018-12-27T17:07:53.513Z,82.85
2018-12-27T17:12:54.432Z,82.44
2018-12-27T17:15:18.845Z,82.49
2018-12-27T17:17:43.275Z,82.82
2018-12-27T17:20:07.695Z,82.63
2018-12-27T17:22:32.152Z,82.26
2018-12-27T17:24:56.580Z,82.73
2018-12-27T17:27:42.594Z,82.06
2018-12-27T17:33:03.783Z,80.73
2018-12-27T17:35:28.183Z,80.81
2018-12-27T17:37:52.646Z,81.01
2018-12-27T17:40:17.037Z,80.69
2018-12-27T17:42:41.459Z,80.53
2018-12-27T17:48:03.145Z,81.38
2018-12-27T17:53:03.660Z,81.44
2018-12-27T17:55:28.205Z,81.81
2018-12-27T17:57:52.598Z,81.35
2018-12-27T18:00:22.297Z,81.13
2018-12-27T18:02:46.705Z,80.96
2018-12-27T18:05:11.080Z,81.63
2018-12-27T18:07:35.608Z,82.06
2018-12-27T18:10:00.003Z,81.08
2018-12-27T18:12:24.403Z,80.64
2018-12-27T18:15:09.597Z,81.50
2018-12-27T18:17:34.049Z,80.59
2018-12-27T18:19:58.425Z,80.45
2018-12-27T18:22:22.833Z,80.88
2018-12-27T18:24:47.330Z,80.60
2018-12-27T18:27:11.737Z,80.63
2018-12-27T18:29:36.128Z,81.00
2018-12-27T18:32:13.016Z,80.64
2018-12-27T18:34:37.412Z,80.44
2018-12-27T18:37:01.856Z,80.29
2018-12-27T18:39:26.263Z,80.71
2018-12-27T18:41:50.798Z,81.33
2018-12-27T18:44:15.184Z,80.70
2018-12-27T18:46:39.584Z,80.89
2018-12-27T18:49:04.071Z,80.97
2018-12-27T18:51:28.398Z,81.72
2018-12-27T18:53:52.836Z,80.79
2018-12-27T18:56:17.270Z,81.13
2018-12-27T18:58:41.663Z,80.72
2018-12-27T19:01:06.094Z,81.75
2018-12-27T19:03:42.631Z,82.15
2018-12-27T19:06:07.087Z,81.62
2018-12-27T19:08:31.474Z,82.11
2018-12-27T19:11:34.478Z,82.04
2018-12-27T19:13:58.897Z,81.44
2018-12-27T19:16:23.306Z,81.87
2018-12-27T19:18:47.703Z,81.44
2018-12-27T19:21:12.368Z,81.55
2018-12-27T19:23:36.772Z,81.94
2018-12-27T19:26:01.181Z,81.62
2018-12-27T19:28:25.624Z,81.18
2018-12-27T19:30:50.012Z,81.13
2018-12-27T19:33:14.537Z,81.65
2018-12-27T19:38:15.613Z,81.63
2018-12-27T19:40:40.025Z,80.90
2018-12-27T19:43:04.403Z,81.75
2018-12-27T19:45:28.840Z,81.50
2018-12-27T19:47:53.236Z,81.39
2018-12-27T19:50:17.787Z,81.96
2018-12-27T19:52:42.203Z,81.83
2018-12-27T19:55:06.641Z,81.62
2018-12-27T19:57:31.042Z,82.24
2018-12-27T19:59:55.455Z,82.18
2018-12-27T20:02:20.264Z,82.24
2018-12-27T20:07:20.387Z,82.17
2018-12-27T20:09:44.879Z,81.81
2018-12-27T20:12:09.280Z,81.72
2018-12-27T20:14:33.726Z,81.55
2018-12-27T20:16:58.104Z,81.34
2018-12-27T20:19:22.509Z,81.80
2018-12-27T20:21:47.001Z,80.95
2018-12-27T20:24:11.425Z,80.43
2018-12-27T20:26:35.858Z,80.61
2018-12-27T20:29:00.268Z,81.41
2018-12-27T20:31:24.671Z,80.63
2018-12-27T20:33:49.107Z,81.30
2018-12-27T20:36:13.538Z,81.55
2018-12-27T20:38:37.943Z,82.22
2018-12-27T20:41:02.372Z,81.61
2018-12-27T20:43:26.786Z,81.12
2018-12-27T20:45:51.208Z,81.11
2018-12-27T20:48:21.346Z,81.35
2018-12-27T20:50:46.073Z,80.69
2018-12-27T20:53:10.531Z,80.72
2018-12-27T20:55:34.947Z,81.08
2018-12-27T20:57:59.421Z,81.09
2018-12-27T21:00:23.837Z,81.29
2018-12-27T21:02:48.266Z,80.78
2018-12-27T21:05:12.703Z,81.12
2018-12-27T21:07:37.126Z,80.81
2018-12-27T21:10:01.568Z,81.36
2018-12-27T21:12:26.001Z,81.66
2018-12-27T21:14:50.441Z,80.92
2018-12-27T21:17:14.849Z,81.70
2018-12-27T21:22:15.709Z,81.61
2018-12-27T21:24:40.103Z,81.34
2018-12-27T21:27:04.532Z,80.81
2018-12-27T21:29:28.922Z,80.31
2018-12-27T21:31:53.378Z,80.41
2018-12-27T21:34:17.796Z,80.11
2018-12-27T21:36:42.198Z,80.39
2018-12-27T21:39:27.406Z,80.41
2018-12-27T21:41:51.786Z,80.94
2018-12-27T21:44:16.226Z,80.26
2018-12-27T21:46:40.647Z,80.62
2018-12-27T21:49:05.041Z,80.63
2018-12-27T21:51:29.471Z,80.94
2018-12-27T21:53:53.910Z,81.66
2018-12-27T21:56:18.360Z,82.10
2018-12-27T21:58:42.795Z,81.67
2018-12-27T22:01:07.169Z,81.53
2018-12-27T22:03:31.622Z,81.60
2018-12-27T22:05:56.029Z,80.70
2018-12-27T22:08:20.463Z,81.19
2018-12-27T22:10:44.863Z,81.40
2018-12-27T22:13:09.276Z,81.89
2018-12-27T22:15:33.704Z,81.64
2018-12-27T22:17:58.082Z,81.82
2018-12-27T22:20:22.492Z,81.88
2018-12-27T22:22:46.905Z,82.20
2018-12-27T22:25:11.325Z,81.93
2018-12-27T22:27:35.753Z,82.28
2018-12-27T22:30:00.235Z,81.76
2018-12-27T22:32:24.672Z,82.10
2018-12-27T22:34:49.123Z,82.01
2018-12-27T22:37:13.540Z,81.51
2018-12-27T22:39:37.985Z,81.38
2018-12-27T22:42:02.421Z,81.27
2018-12-27T22:44:26.953Z,82.39
2018-12-27T22:46:51.408Z,82.55
2018-12-27T22:51:51.002Z,82.30
2018-12-27T22:54:15.397Z,82.50
2018-12-27T22:56:39.848Z,82.23
2018-12-27T22:59:04.239Z,82.23
2018-12-27T23:01:28.693Z,82.10
2018-12-27T23:03:53.096Z,81.98
2018-12-27T23:06:17.491Z,81.46
2018-12-27T23:08:43.206Z,82.17
2018-12-27T23:11:16.966Z,82.41
2018-12-27T23:13:41.539Z,82.72
2018-12-27T23:16:05.963Z,82.68
2018-12-27T23:18:30.357Z,82.85
2018-12-27T23:20:54.783Z,82.52
2018-12-27T23:23:19.184Z,82.65
2018-12-27T23:25:43.594Z,82.80
2018-12-27T23:28:08.178Z,82.12
2018-12-27T23:30:32.570Z,81.92
2018-12-27T23:32:57.033Z,81.49
2018-12-27T23:35:21.421Z,80.86
2018-12-27T23:37:45.827Z,81.47
2018-12-27T23:40:10.253Z,81.95
2018-12-27T23:42:34.678Z,81.92
2018-12-27T23:44:59.097Z,81.60
2018-12-27T23:47:23.484Z,82.50
2018-12-27T23:49:47.860Z,82.00
2018-12-27T23:52:12.284Z,81.20
2018-12-27T23:54:36.671Z,80.80
2018-12-27T23:57:01.109Z,81.25
2018-12-27T23:59:25.505Z,81.42
